sensor_id;sensor_type;location;lat;lon;timestamp;P1;durP1;ratioP1;P2;durP2;ratioP2
84138;SDS011;74250;51.528;6.748;2023-11-21T00:01:37;15.30;;;8.80;;
84138;SDS011;74250;51.528;6.748;2023-11-21T00:04:03;13.80;;;7.82;;
84138;SDS011;74250;51.528;6.748;2023-11-21T00:06:28;15.70;;;7.65;;
84138;SDS011;74250;51.528;6.748;2023-11-21T00:08:55;13.27;;;8.48;;
84138;SDS011;74250;51.528;6.748;2023-11-21T00:11:21;19.05;;;10.02;;
84138;SDS011;74250;51.528;6.748;2023-11-21T00:13:46;14.60;;;6.90;;
84138;SDS011;74250;51.528;6.748;2023-11-21T00:16:11;13.55;;;7.30;;
84138;SDS011;74250;51.528;6.748;2023-11-21T00:18:37;14.80;;;6.75;;
84138;SDS011;74250;51.528;6.748;2023-11-21T00:21:02;12.50;;;7.25;;
84138;SDS011;74250;51.528;6.748;2023-11-21T00:23:28;15.45;;;8.35;;
84138;SDS011;74250;51.528;6.748;2023-11-21T00:25:54;15.00;;;7.88;;
84138;SDS011;74250;51.528;6.748;2023-11-21T00:28:19;13.40;;;7.63;;
84138;SDS011;74250;51.528;6.748;2023-11-21T00:30:44;15.32;;;8.05;;
84138;SDS011;74250;51.528;6.748;2023-11-21T00:33:10;12.43;;;7.30;;
84138;SDS011;74250;51.528;6.748;2023-11-21T00:35:36;13.02;;;8.43;;
84138;SDS011;74250;51.528;6.748;2023-11-21T00:38:01;16.77;;;8.93;;
84138;SDS011;74250;51.528;6.748;2023-11-21T00:45:18;15.15;;;8.52;;
84138;SDS011;74250;51.528;6.748;2023-11-21T00:47:44;15.00;;;8.20;;
84138;SDS011;74250;51.528;6.748;2023-11-21T00:50:09;16.55;;;8.82;;
84138;SDS011;74250;51.528;6.748;2023-11-21T00:52:34;13.60;;;7.88;;
84138;SDS011;74250;51.528;6.748;2023-11-21T00:55:01;16.95;;;9.25;;
84138;SDS011;74250;51.528;6.748;2023-11-21T00:57:27;13.32;;;9.85;;
84138;SDS011;74250;51.528;6.748;2023-11-21T00:59:53;14.40;;;8.70;;
84138;SDS011;74250;51.528;6.748;2023-11-21T01:02:18;15.63;;;8.82;;
84138;SDS011;74250;51.528;6.748;2023-11-21T01:04:50;14.95;;;8.45;;
84138;SDS011;74250;51.528;6.748;2023-11-21T01:07:15;18.00;;;9.82;;
84138;SDS011;74250;51.528;6.748;2023-11-21T01:09:40;14.35;;;8.70;;
84138;SDS011;74250;51.528;6.748;2023-11-21T01:12:06;18.00;;;8.65;;
84138;SDS011;74250;51.528;6.748;2023-11-21T01:14:31;17.92;;;9.50;;
84138;SDS011;74250;51.528;6.748;2023-11-21T01:16:57;15.77;;;8.32;;
84138;SDS011;74250;51.528;6.748;2023-11-21T01:19:22;21.20;;;11.23;;
84138;SDS011;74250;51.528;6.748;2023-11-21T01:21:47;20.85;;;9.35;;
84138;SDS011;74250;51.528;6.748;2023-11-21T01:24:13;18.08;;;8.80;;
84138;SDS011;74250;51.528;6.748;2023-11-21T01:26:38;15.15;;;7.70;;
84138;SDS011;74250;51.528;6.748;2023-11-21T01:29:03;17.75;;;10.55;;
84138;SDS011;74250;51.528;6.748;2023-11-21T01:31:29;20.27;;;11.15;;
84138;SDS011;74250;51.528;6.748;2023-11-21T01:33:55;20.60;;;10.30;;
84138;SDS011;74250;51.528;6.748;2023-11-21T01:36:21;18.65;;;11.15;;
84138;SDS011;74250;51.528;6.748;2023-11-21T01:38:46;18.80;;;10.20;;
84138;SDS011;74250;51.528;6.748;2023-11-21T01:41:13;18.42;;;9.93;;
84138;SDS011;74250;51.528;6.748;2023-11-21T01:43:39;15.00;;;9.00;;
84138;SDS011;74250;51.528;6.748;2023-11-21T01:46:04;16.85;;;10.18;;
84138;SDS011;74250;51.528;6.748;2023-11-21T01:53:23;16.40;;;8.38;;
84138;SDS011;74250;51.528;6.748;2023-11-21T01:55:52;18.40;;;9.90;;
84138;SDS011;74250;51.528;6.748;2023-11-21T01:58:18;18.50;;;9.35;;
84138;SDS011;74250;51.528;6.748;2023-11-21T02:00:44;20.75;;;10.63;;
84138;SDS011;74250;51.528;6.748;2023-11-21T02:03:10;18.17;;;10.88;;
84138;SDS011;74250;51.528;6.748;2023-11-21T02:05:35;14.63;;;8.35;;
84138;SDS011;74250;51.528;6.748;2023-11-21T02:08:00;16.60;;;8.23;;
84138;SDS011;74250;51.528;6.748;2023-11-21T02:10:27;15.57;;;8.68;;
84138;SDS011;74250;51.528;6.748;2023-11-21T02:12:54;16.25;;;8.27;;
84138;SDS011;74250;51.528;6.748;2023-11-21T02:20:12;18.42;;;9.77;;
84138;SDS011;74250;51.528;6.748;2023-11-21T02:22:40;15.10;;;8.27;;
84138;SDS011;74250;51.528;6.748;2023-11-21T02:25:07;18.20;;;9.45;;
84138;SDS011;74250;51.528;6.748;2023-11-21T02:27:33;13.38;;;7.78;;
84138;SDS011;74250;51.528;6.748;2023-11-21T02:29:58;17.58;;;9.32;;
84138;SDS011;74250;51.528;6.748;2023-11-21T02:32:24;15.57;;;9.50;;
84138;SDS011;74250;51.528;6.748;2023-11-21T02:34:51;19.27;;;10.93;;
84138;SDS011;74250;51.528;6.748;2023-11-21T02:37:16;20.65;;;12.13;;
84138;SDS011;74250;51.528;6.748;2023-11-21T02:39:41;17.95;;;9.50;;
84138;SDS011;74250;51.528;6.748;2023-11-21T02:42:07;16.77;;;9.90;;
84138;SDS011;74250;51.528;6.748;2023-11-21T02:44:32;17.67;;;9.63;;
84138;SDS011;74250;51.528;6.748;2023-11-21T02:46:57;18.73;;;10.40;;
84138;SDS011;74250;51.528;6.748;2023-11-21T02:49:23;14.68;;;9.02;;
84138;SDS011;74250;51.528;6.748;2023-11-21T02:51:48;15.55;;;9.38;;
84138;SDS011;74250;51.528;6.748;2023-11-21T02:54:13;18.38;;;10.93;;
84138;SDS011;74250;51.528;6.748;2023-11-21T02:56:39;16.52;;;9.40;;
84138;SDS011;74250;51.528;6.748;2023-11-21T02:59:05;18.73;;;9.95;;
84138;SDS011;74250;51.528;6.748;2023-11-21T03:01:30;19.83;;;9.65;;
84138;SDS011;74250;51.528;6.748;2023-11-21T03:03:56;17.17;;;9.15;;
84138;SDS011;74250;51.528;6.748;2023-11-21T03:06:21;18.17;;;10.15;;
84138;SDS011;74250;51.528;6.748;2023-11-21T03:08:47;23.70;;;11.52;;
84138;SDS011;74250;51.528;6.748;2023-11-21T03:11:13;22.92;;;11.55;;
84138;SDS011;74250;51.528;6.748;2023-11-21T03:13:39;24.17;;;12.02;;
84138;SDS011;74250;51.528;6.748;2023-11-21T03:16:06;21.65;;;10.88;;
84138;SDS011;74250;51.528;6.748;2023-11-21T03:18:35;23.23;;;12.18;;
84138;SDS011;74250;51.528;6.748;2023-11-21T03:21:01;24.83;;;14.30;;
84138;SDS011;74250;51.528;6.748;2023-11-21T03:23:27;18.02;;;11.48;;
84138;SDS011;74250;51.528;6.748;2023-11-21T03:25:52;21.85;;;11.75;;
84138;SDS011;74250;51.528;6.748;2023-11-21T03:28:18;22.60;;;11.07;;
84138;SDS011;74250;51.528;6.748;2023-11-21T03:30:43;25.88;;;12.40;;
84138;SDS011;74250;51.528;6.748;2023-11-21T03:33:08;20.17;;;11.40;;
84138;SDS011;74250;51.528;6.748;2023-11-21T03:35:34;23.58;;;10.77;;
84138;SDS011;74250;51.528;6.748;2023-11-21T03:38:00;23.55;;;12.07;;
84138;SDS011;74250;51.528;6.748;2023-11-21T03:43:31;19.48;;;10.55;;
84138;SDS011;74250;51.528;6.748;2023-11-21T03:45:56;22.92;;;11.75;;
84138;SDS011;74250;51.528;6.748;2023-11-21T03:48:22;60.97;;;31.00;;
84138;SDS011;74250;51.528;6.748;2023-11-21T03:50:48;30.48;;;16.50;;
84138;SDS011;74250;51.528;6.748;2023-11-21T03:53:13;37.80;;;21.83;;
84138;SDS011;74250;51.528;6.748;2023-11-21T03:55:39;30.05;;;13.98;;
84138;SDS011;74250;51.528;6.748;2023-11-21T03:58:04;28.33;;;13.73;;
84138;SDS011;74250;51.528;6.748;2023-11-21T04:00:29;19.08;;;10.32;;
84138;SDS011;74250;51.528;6.748;2023-11-21T04:02:55;25.42;;;13.48;;
84138;SDS011;74250;51.528;6.748;2023-11-21T04:05:21;26.67;;;13.60;;
84138;SDS011;74250;51.528;6.748;2023-11-21T04:07:49;27.48;;;12.85;;
84138;SDS011;74250;51.528;6.748;2023-11-21T04:10:16;25.90;;;12.02;;
84138;SDS011;74250;51.528;6.748;2023-11-21T04:12:41;24.67;;;13.48;;
84138;SDS011;74250;51.528;6.748;2023-11-21T04:15:07;25.17;;;12.68;;
84138;SDS011;74250;51.528;6.748;2023-11-21T04:17:34;28.35;;;12.88;;
84138;SDS011;74250;51.528;6.748;2023-11-21T04:19:59;33.15;;;15.02;;
84138;SDS011;74250;51.528;6.748;2023-11-21T04:22:24;35.03;;;15.25;;
84138;SDS011;74250;51.528;6.748;2023-11-21T04:24:50;27.85;;;12.98;;
84138;SDS011;74250;51.528;6.748;2023-11-21T04:27:15;25.02;;;14.10;;
84138;SDS011;74250;51.528;6.748;2023-11-21T04:29:43;30.23;;;14.63;;
84138;SDS011;74250;51.528;6.748;2023-11-21T04:32:09;21.33;;;11.18;;
84138;SDS011;74250;51.528;6.748;2023-11-21T04:34:34;23.95;;;12.02;;
84138;SDS011;74250;51.528;6.748;2023-11-21T04:37:00;23.98;;;12.27;;
84138;SDS011;74250;51.528;6.748;2023-11-21T04:39:25;19.48;;;11.95;;
84138;SDS011;74250;51.528;6.748;2023-11-21T04:41:51;24.67;;;12.00;;
84138;SDS011;74250;51.528;6.748;2023-11-21T04:44:16;25.70;;;13.18;;
84138;SDS011;74250;51.528;6.748;2023-11-21T04:46:42;23.38;;;11.82;;
84138;SDS011;74250;51.528;6.748;2023-11-21T04:49:07;25.48;;;11.90;;
84138;SDS011;74250;51.528;6.748;2023-11-21T04:51:32;21.05;;;11.40;;
84138;SDS011;74250;51.528;6.748;2023-11-21T04:53:58;27.38;;;13.13;;
84138;SDS011;74250;51.528;6.748;2023-11-21T04:56:23;22.73;;;12.82;;
84138;SDS011;74250;51.528;6.748;2023-11-21T04:58:49;30.40;;;13.20;;
84138;SDS011;74250;51.528;6.748;2023-11-21T05:01:15;24.65;;;14.15;;
84138;SDS011;74250;51.528;6.748;2023-11-21T05:03:40;33.10;;;14.43;;
84138;SDS011;74250;51.528;6.748;2023-11-21T05:06:06;31.38;;;16.02;;
84138;SDS011;74250;51.528;6.748;2023-11-21T05:08:31;23.40;;;11.82;;
84138;SDS011;74250;51.528;6.748;2023-11-21T05:10:57;25.38;;;14.20;;
84138;SDS011;74250;51.528;6.748;2023-11-21T05:13:22;28.25;;;14.70;;
84138;SDS011;74250;51.528;6.748;2023-11-21T05:15:52;34.58;;;16.08;;
84138;SDS011;74250;51.528;6.748;2023-11-21T05:18:18;30.35;;;16.35;;
84138;SDS011;74250;51.528;6.748;2023-11-21T05:20:44;33.28;;;16.63;;
84138;SDS011;74250;51.528;6.748;2023-11-21T05:23:09;26.95;;;13.55;;
84138;SDS011;74250;51.528;6.748;2023-11-21T05:25:34;34.25;;;16.77;;
84138;SDS011;74250;51.528;6.748;2023-11-21T05:28:00;39.35;;;16.92;;
84138;SDS011;74250;51.528;6.748;2023-11-21T05:32:52;33.63;;;16.33;;
84138;SDS011;74250;51.528;6.748;2023-11-21T05:35:17;37.95;;;17.75;;
84138;SDS011;74250;51.528;6.748;2023-11-21T05:37:42;39.58;;;19.73;;
84138;SDS011;74250;51.528;6.748;2023-11-21T05:40:08;50.03;;;19.95;;
84138;SDS011;74250;51.528;6.748;2023-11-21T05:42:35;51.65;;;21.95;;
84138;SDS011;74250;51.528;6.748;2023-11-21T05:45:01;52.95;;;20.08;;
84138;SDS011;74250;51.528;6.748;2023-11-21T05:47:40;53.67;;;19.92;;
84138;SDS011;74250;51.528;6.748;2023-11-21T05:50:10;50.15;;;21.10;;
84138;SDS011;74250;51.528;6.748;2023-11-21T05:52:44;41.88;;;19.83;;
84138;SDS011;74250;51.528;6.748;2023-11-21T05:57:35;46.60;;;20.02;;
84138;SDS011;74250;51.528;6.748;2023-11-21T06:00:05;49.70;;;21.10;;
84138;SDS011;74250;51.528;6.748;2023-11-21T06:02:52;58.95;;;21.80;;
84138;SDS011;74250;51.528;6.748;2023-11-21T06:05:19;45.95;;;20.52;;
84138;SDS011;74250;51.528;6.748;2023-11-21T06:07:44;45.97;;;19.63;;
84138;SDS011;74250;51.528;6.748;2023-11-21T06:10:10;43.35;;;19.77;;
84138;SDS011;74250;51.528;6.748;2023-11-21T06:12:38;52.00;;;22.33;;
84138;SDS011;74250;51.528;6.748;2023-11-21T06:17:32;57.47;;;21.73;;
84138;SDS011;74250;51.528;6.748;2023-11-21T06:19:57;52.53;;;20.63;;
84138;SDS011;74250;51.528;6.748;2023-11-21T06:22:23;62.70;;;22.42;;
84138;SDS011;74250;51.528;6.748;2023-11-21T06:24:48;51.03;;;21.38;;
84138;SDS011;74250;51.528;6.748;2023-11-21T06:27:13;63.03;;;23.27;;
84138;SDS011;74250;51.528;6.748;2023-11-21T06:29:39;62.63;;;25.10;;
84138;SDS011;74250;51.528;6.748;2023-11-21T06:32:04;42.38;;;19.30;;
84138;SDS011;74250;51.528;6.748;2023-11-21T06:34:30;53.15;;;21.60;;
84138;SDS011;74250;51.528;6.748;2023-11-21T06:36:56;46.42;;;19.33;;
84138;SDS011;74250;51.528;6.748;2023-11-21T06:39:21;48.85;;;19.17;;
84138;SDS011;74250;51.528;6.748;2023-11-21T06:41:48;40.65;;;19.25;;
84138;SDS011;74250;51.528;6.748;2023-11-21T06:44:14;43.47;;;18.35;;
84138;SDS011;74250;51.528;6.748;2023-11-21T06:46:40;54.83;;;22.10;;
84138;SDS011;74250;51.528;6.748;2023-11-21T06:49:07;47.45;;;20.77;;
84138;SDS011;74250;51.528;6.748;2023-11-21T06:51:33;74.72;;;23.98;;
84138;SDS011;74250;51.528;6.748;2023-11-21T06:53:58;53.20;;;21.25;;
84138;SDS011;74250;51.528;6.748;2023-11-21T06:56:23;49.17;;;19.70;;
84138;SDS011;74250;51.528;6.748;2023-11-21T06:58:49;51.08;;;21.65;;
84138;SDS011;74250;51.528;6.748;2023-11-21T07:01:14;46.20;;;20.27;;
84138;SDS011;74250;51.528;6.748;2023-11-21T07:03:40;78.80;;;24.85;;
84138;SDS011;74250;51.528;6.748;2023-11-21T07:06:06;75.78;;;24.90;;
84138;SDS011;74250;51.528;6.748;2023-11-21T07:08:32;67.68;;;24.00;;
84138;SDS011;74250;51.528;6.748;2023-11-21T07:10:58;64.43;;;22.80;;
84138;SDS011;74250;51.528;6.748;2023-11-21T07:13:23;40.80;;;21.27;;
84138;SDS011;74250;51.528;6.748;2023-11-21T07:15:48;52.75;;;21.30;;
84138;SDS011;74250;51.528;6.748;2023-11-21T07:18:14;56.55;;;20.75;;
84138;SDS011;74250;51.528;6.748;2023-11-21T07:20:39;40.28;;;18.60;;
84138;SDS011;74250;51.528;6.748;2023-11-21T07:23:05;34.38;;;15.85;;
84138;SDS011;74250;51.528;6.748;2023-11-21T07:25:31;41.80;;;20.63;;
84138;SDS011;74250;51.528;6.748;2023-11-21T07:27:56;48.45;;;20.25;;
84138;SDS011;74250;51.528;6.748;2023-11-21T07:30:22;53.72;;;21.80;;
84138;SDS011;74250;51.528;6.748;2023-11-21T07:32:47;41.45;;;19.02;;
84138;SDS011;74250;51.528;6.748;2023-11-21T07:35:13;51.33;;;20.52;;
84138;SDS011;74250;51.528;6.748;2023-11-21T07:37:38;60.85;;;22.65;;
84138;SDS011;74250;51.528;6.748;2023-11-21T07:40:04;70.32;;;23.23;;
84138;SDS011;74250;51.528;6.748;2023-11-21T07:42:31;61.90;;;21.58;;
84138;SDS011;74250;51.528;6.748;2023-11-21T07:44:56;55.53;;;23.15;;
84138;SDS011;74250;51.528;6.748;2023-11-21T07:47:21;41.33;;;18.70;;
84138;SDS011;74250;51.528;6.748;2023-11-21T07:49:48;53.05;;;20.75;;
84138;SDS011;74250;51.528;6.748;2023-11-21T07:52:13;31.05;;;15.73;;
84138;SDS011;74250;51.528;6.748;2023-11-21T07:54:41;48.65;;;21.08;;
84138;SDS011;74250;51.528;6.748;2023-11-21T07:57:06;46.13;;;19.45;;
84138;SDS011;74250;51.528;6.748;2023-11-21T07:59:32;42.90;;;19.30;;
84138;SDS011;74250;51.528;6.748;2023-11-21T08:01:57;32.88;;;15.98;;
84138;SDS011;74250;51.528;6.748;2023-11-21T08:04:23;50.45;;;19.85;;
84138;SDS011;74250;51.528;6.748;2023-11-21T08:06:48;48.70;;;19.58;;
84138;SDS011;74250;51.528;6.748;2023-11-21T08:09:14;40.80;;;18.58;;
84138;SDS011;74250;51.528;6.748;2023-11-21T08:14:05;31.77;;;15.77;;
84138;SDS011;74250;51.528;6.748;2023-11-21T08:16:31;45.63;;;18.60;;
84138;SDS011;74250;51.528;6.748;2023-11-21T08:18:57;42.15;;;18.63;;
84138;SDS011;74250;51.528;6.748;2023-11-21T08:21:22;35.30;;;16.35;;
84138;SDS011;74250;51.528;6.748;2023-11-21T08:23:53;41.40;;;17.63;;
84138;SDS011;74250;51.528;6.748;2023-11-21T08:26:23;34.60;;;15.88;;
84138;SDS011;74250;51.528;6.748;2023-11-21T08:28:48;39.58;;;16.88;;
84138;SDS011;74250;51.528;6.748;2023-11-21T08:31:14;54.72;;;19.20;;
84138;SDS011;74250;51.528;6.748;2023-11-21T08:33:39;44.95;;;19.27;;
84138;SDS011;74250;51.528;6.748;2023-11-21T08:36:08;46.30;;;19.30;;
84138;SDS011;74250;51.528;6.748;2023-11-21T08:38:35;38.40;;;17.67;;
84138;SDS011;74250;51.528;6.748;2023-11-21T08:41:05;36.13;;;16.98;;
84138;SDS011;74250;51.528;6.748;2023-11-21T08:43:33;42.10;;;18.73;;
84138;SDS011;74250;51.528;6.748;2023-11-21T08:46:08;34.38;;;17.75;;
84138;SDS011;74250;51.528;6.748;2023-11-21T08:48:36;34.88;;;17.48;;
84138;SDS011;74250;51.528;6.748;2023-11-21T08:51:02;50.10;;;19.42;;
84138;SDS011;74250;51.528;6.748;2023-11-21T08:53:29;32.90;;;16.02;;
84138;SDS011;74250;51.528;6.748;2023-11-21T08:55:54;32.47;;;16.25;;
84138;SDS011;74250;51.528;6.748;2023-11-21T08:58:19;32.85;;;14.98;;
84138;SDS011;74250;51.528;6.748;2023-11-21T09:00:45;35.58;;;16.23;;
84138;SDS011;74250;51.528;6.748;2023-11-21T09:03:11;30.92;;;15.55;;
84138;SDS011;74250;51.528;6.748;2023-11-21T09:05:37;30.20;;;14.05;;
84138;SDS011;74250;51.528;6.748;2023-11-21T09:08:04;35.00;;;17.70;;
84138;SDS011;74250;51.528;6.748;2023-11-21T09:10:29;31.27;;;15.00;;
84138;SDS011;74250;51.528;6.748;2023-11-21T09:12:54;30.10;;;15.07;;
84138;SDS011;74250;51.528;6.748;2023-11-21T09:15:20;29.52;;;15.18;;
84138;SDS011;74250;51.528;6.748;2023-11-21T09:17:45;29.52;;;14.43;;
84138;SDS011;74250;51.528;6.748;2023-11-21T09:20:11;27.77;;;13.40;;
84138;SDS011;74250;51.528;6.748;2023-11-21T09:22:36;25.58;;;12.00;;
84138;SDS011;74250;51.528;6.748;2023-11-21T09:25:01;27.85;;;14.30;;
84138;SDS011;74250;51.528;6.748;2023-11-21T09:27:30;33.75;;;14.07;;
84138;SDS011;74250;51.528;6.748;2023-11-21T09:29:56;26.80;;;12.60;;
84138;SDS011;74250;51.528;6.748;2023-11-21T09:32:23;28.08;;;12.77;;
84138;SDS011;74250;51.528;6.748;2023-11-21T09:34:49;30.10;;;13.52;;
84138;SDS011;74250;51.528;6.748;2023-11-21T09:37:15;28.00;;;13.35;;
84138;SDS011;74250;51.528;6.748;2023-11-21T09:39:41;35.00;;;15.52;;
84138;SDS011;74250;51.528;6.748;2023-11-21T09:44:55;31.27;;;15.32;;
84138;SDS011;74250;51.528;6.748;2023-11-21T09:47:26;34.63;;;15.65;;
84138;SDS011;74250;51.528;6.748;2023-11-21T09:49:51;39.83;;;17.58;;
84138;SDS011;74250;51.528;6.748;2023-11-21T09:52:23;41.75;;;17.50;;
84138;SDS011;74250;51.528;6.748;2023-11-21T09:54:51;43.60;;;19.20;;
84138;SDS011;74250;51.528;6.748;2023-11-21T09:57:22;37.15;;;17.70;;
84138;SDS011;74250;51.528;6.748;2023-11-21T09:59:50;33.42;;;15.98;;
84138;SDS011;74250;51.528;6.748;2023-11-21T10:02:17;39.20;;;16.20;;
84138;SDS011;74250;51.528;6.748;2023-11-21T10:04:44;38.90;;;16.25;;
84138;SDS011;74250;51.528;6.748;2023-11-21T10:09:36;35.53;;;14.63;;
84138;SDS011;74250;51.528;6.748;2023-11-21T10:12:02;34.13;;;16.00;;
84138;SDS011;74250;51.528;6.748;2023-11-21T10:14:34;33.38;;;15.98;;
84138;SDS011;74250;51.528;6.748;2023-11-21T10:17:02;36.08;;;14.00;;
84138;SDS011;74250;51.528;6.748;2023-11-21T10:19:27;32.42;;;14.90;;
84138;SDS011;74250;51.528;6.748;2023-11-21T10:21:53;40.13;;;17.60;;
84138;SDS011;74250;51.528;6.748;2023-11-21T10:24:19;33.70;;;15.43;;
84138;SDS011;74250;51.528;6.748;2023-11-21T10:26:45;40.90;;;17.85;;
84138;SDS011;74250;51.528;6.748;2023-11-21T10:29:13;50.67;;;19.02;;
84138;SDS011;74250;51.528;6.748;2023-11-21T10:31:41;39.45;;;17.58;;
84138;SDS011;74250;51.528;6.748;2023-11-21T10:34:20;42.33;;;17.17;;
84138;SDS011;74250;51.528;6.748;2023-11-21T10:36:45;47.90;;;21.27;;
84138;SDS011;74250;51.528;6.748;2023-11-21T10:39:17;50.85;;;20.10;;
84138;SDS011;74250;51.528;6.748;2023-11-21T10:44:11;50.08;;;17.95;;
84138;SDS011;74250;51.528;6.748;2023-11-21T10:46:39;51.65;;;19.33;;
84138;SDS011;74250;51.528;6.748;2023-11-21T10:49:05;61.63;;;21.23;;
84138;SDS011;74250;51.528;6.748;2023-11-21T10:51:31;56.33;;;22.00;;
84138;SDS011;74250;51.528;6.748;2023-11-21T10:53:57;55.85;;;23.00;;
84138;SDS011;74250;51.528;6.748;2023-11-21T10:56:25;54.83;;;21.25;;
84138;SDS011;74250;51.528;6.748;2023-11-21T10:58:53;56.22;;;21.35;;
84138;SDS011;74250;51.528;6.748;2023-11-21T11:01:19;40.85;;;17.38;;
84138;SDS011;74250;51.528;6.748;2023-11-21T11:03:50;47.72;;;19.30;;
84138;SDS011;74250;51.528;6.748;2023-11-21T11:06:19;42.42;;;19.63;;
84138;SDS011;74250;51.528;6.748;2023-11-21T11:08:45;51.50;;;21.83;;
84138;SDS011;74250;51.528;6.748;2023-11-21T11:11:11;50.88;;;21.35;;
84138;SDS011;74250;51.528;6.748;2023-11-21T11:13:39;44.63;;;20.38;;
84138;SDS011;74250;51.528;6.748;2023-11-21T11:16:08;42.17;;;18.40;;
84138;SDS011;74250;51.528;6.748;2023-11-21T11:18:35;43.80;;;18.05;;
84138;SDS011;74250;51.528;6.748;2023-11-21T11:36:13;41.67;;;18.58;;
84138;SDS011;74250;51.528;6.748;2023-11-21T11:38:23;37.45;;;15.98;;
84138;SDS011;74250;51.528;6.748;2023-11-21T11:40:52;44.22;;;17.95;;
84138;SDS011;74250;51.528;6.748;2023-11-21T11:43:25;40.60;;;17.38;;
84138;SDS011;74250;51.528;6.748;2023-11-21T11:45:51;35.35;;;16.60;;
84138;SDS011;74250;51.528;6.748;2023-11-21T11:51:02;35.47;;;16.45;;
84138;SDS011;74250;51.528;6.748;2023-11-21T11:53:32;30.52;;;13.77;;
84138;SDS011;74250;51.528;6.748;2023-11-21T11:58:48;30.88;;;13.55;;
84138;SDS011;74250;51.528;6.748;2023-11-21T12:01:16;31.42;;;15.05;;
84138;SDS011;74250;51.528;6.748;2023-11-21T12:03:42;36.92;;;15.35;;
84138;SDS011;74250;51.528;6.748;2023-11-21T12:06:08;33.60;;;15.55;;
84138;SDS011;74250;51.528;6.748;2023-11-21T12:08:36;33.33;;;15.18;;
84138;SDS011;74250;51.528;6.748;2023-11-21T12:11:02;30.92;;;14.57;;
84138;SDS011;74250;51.528;6.748;2023-11-21T12:13:28;33.35;;;14.57;;
84138;SDS011;74250;51.528;6.748;2023-11-21T12:15:53;34.85;;;16.13;;
84138;SDS011;74250;51.528;6.748;2023-11-21T12:18:20;33.80;;;15.60;;
84138;SDS011;74250;51.528;6.748;2023-11-21T12:20:46;31.45;;;14.23;;
84138;SDS011;74250;51.528;6.748;2023-11-21T12:23:13;33.67;;;15.07;;
84138;SDS011;74250;51.528;6.748;2023-11-21T12:25:41;31.20;;;14.38;;
84138;SDS011;74250;51.528;6.748;2023-11-21T12:28:07;25.15;;;13.40;;
84138;SDS011;74250;51.528;6.748;2023-11-21T12:30:33;24.67;;;11.25;;
84138;SDS011;74250;51.528;6.748;2023-11-21T12:33:00;20.35;;;10.05;;
84138;SDS011;74250;51.528;6.748;2023-11-21T12:35:27;20.95;;;10.75;;
84138;SDS011;74250;51.528;6.748;2023-11-21T12:37:54;16.33;;;8.73;;
84138;SDS011;74250;51.528;6.748;2023-11-21T12:42:48;15.38;;;7.32;;
84138;SDS011;74250;51.528;6.748;2023-11-21T12:47:43;16.73;;;7.97;;
84138;SDS011;74250;51.528;6.748;2023-11-21T12:50:09;20.20;;;10.13;;
84138;SDS011;74250;51.528;6.748;2023-11-21T12:52:44;20.75;;;11.23;;
84138;SDS011;74250;51.528;6.748;2023-11-21T12:55:31;18.83;;;9.57;;
84138;SDS011;74250;51.528;6.748;2023-11-21T12:57:57;19.60;;;10.48;;
84138;SDS011;74250;51.528;6.748;2023-11-21T13:00:33;21.83;;;9.90;;
84138;SDS011;74250;51.528;6.748;2023-11-21T13:03:03;21.48;;;10.50;;
84138;SDS011;74250;51.528;6.748;2023-11-21T13:05:31;21.70;;;10.43;;
84138;SDS011;74250;51.528;6.748;2023-11-21T13:07:59;24.27;;;11.93;;
84138;SDS011;74250;51.528;6.748;2023-11-21T13:10:27;23.83;;;11.65;;
84138;SDS011;74250;51.528;6.748;2023-11-21T13:12:56;20.60;;;11.20;;
84138;SDS011;74250;51.528;6.748;2023-11-21T13:15:23;23.73;;;11.02;;
84138;SDS011;74250;51.528;6.748;2023-11-21T13:17:49;21.35;;;11.38;;
84138;SDS011;74250;51.528;6.748;2023-11-21T13:20:16;25.10;;;12.45;;
84138;SDS011;74250;51.528;6.748;2023-11-21T13:22:55;25.75;;;11.40;;
84138;SDS011;74250;51.528;6.748;2023-11-21T13:25:25;20.95;;;11.82;;
84138;SDS011;74250;51.528;6.748;2023-11-21T13:27:56;23.17;;;11.05;;
84138;SDS011;74250;51.528;6.748;2023-11-21T13:30:22;21.08;;;10.02;;
84138;SDS011;74250;51.528;6.748;2023-11-21T13:32:52;19.58;;;10.57;;
84138;SDS011;74250;51.528;6.748;2023-11-21T13:35:18;22.17;;;11.70;;
84138;SDS011;74250;51.528;6.748;2023-11-21T13:37:55;24.50;;;11.07;;
84138;SDS011;74250;51.528;6.748;2023-11-21T13:40:22;23.55;;;11.48;;
84138;SDS011;74250;51.528;6.748;2023-11-21T13:42:52;23.58;;;13.48;;
84138;SDS011;74250;51.528;6.748;2023-11-21T13:45:18;22.63;;;12.45;;
84138;SDS011;74250;51.528;6.748;2023-11-21T13:47:46;20.00;;;10.15;;
84138;SDS011;74250;51.528;6.748;2023-11-21T13:50:12;21.52;;;11.18;;
84138;SDS011;74250;51.528;6.748;2023-11-21T13:52:42;17.25;;;9.15;;
84138;SDS011;74250;51.528;6.748;2023-11-21T13:55:10;20.17;;;10.80;;
84138;SDS011;74250;51.528;6.748;2023-11-21T13:57:41;23.20;;;10.27;;
84138;SDS011;74250;51.528;6.748;2023-11-21T14:00:14;18.55;;;10.23;;
84138;SDS011;74250;51.528;6.748;2023-11-21T14:03:00;19.50;;;9.05;;
84138;SDS011;74250;51.528;6.748;2023-11-21T14:05:28;19.60;;;10.15;;
84138;SDS011;74250;51.528;6.748;2023-11-21T14:07:59;18.80;;;9.63;;
84138;SDS011;74250;51.528;6.748;2023-11-21T14:10:30;21.10;;;10.63;;
84138;SDS011;74250;51.528;6.748;2023-11-21T14:13:08;19.65;;;10.63;;
84138;SDS011;74250;51.528;6.748;2023-11-21T14:15:38;18.02;;;9.45;;
84138;SDS011;74250;51.528;6.748;2023-11-21T14:18:08;19.17;;;9.90;;
84138;SDS011;74250;51.528;6.748;2023-11-21T14:20:38;18.38;;;9.50;;
84138;SDS011;74250;51.528;6.748;2023-11-21T14:23:05;20.52;;;9.70;;
84138;SDS011;74250;51.528;6.748;2023-11-21T14:25:32;21.13;;;9.52;;
84138;SDS011;74250;51.528;6.748;2023-11-21T14:27:58;18.90;;;9.25;;
84138;SDS011;74250;51.528;6.748;2023-11-21T14:30:24;18.30;;;10.27;;
84138;SDS011;74250;51.528;6.748;2023-11-21T14:32:50;20.40;;;9.63;;
84138;SDS011;74250;51.528;6.748;2023-11-21T14:35:16;17.63;;;9.23;;
84138;SDS011;74250;51.528;6.748;2023-11-21T14:37:42;15.75;;;8.63;;
84138;SDS011;74250;51.528;6.748;2023-11-21T14:40:09;18.58;;;10.07;;
84138;SDS011;74250;51.528;6.748;2023-11-21T14:42:35;16.70;;;8.38;;
84138;SDS011;74250;51.528;6.748;2023-11-21T14:45:04;17.52;;;9.15;;
84138;SDS011;74250;51.528;6.748;2023-11-21T14:47:32;17.90;;;8.43;;
84138;SDS011;74250;51.528;6.748;2023-11-21T14:49:59;18.05;;;8.43;;
84138;SDS011;74250;51.528;6.748;2023-11-21T14:52:31;15.98;;;8.10;;
84138;SDS011;74250;51.528;6.748;2023-11-21T14:54:59;16.67;;;8.45;;
84138;SDS011;74250;51.528;6.748;2023-11-21T14:57:56;15.40;;;7.85;;
84138;SDS011;74250;51.528;6.748;2023-11-21T15:00:27;13.52;;;6.53;;
84138;SDS011;74250;51.528;6.748;2023-11-21T15:03:12;16.08;;;8.27;;
84138;SDS011;74250;51.528;6.748;2023-11-21T15:06:01;13.75;;;7.95;;
84138;SDS011;74250;51.528;6.748;2023-11-21T15:08:44;13.95;;;7.00;;
84138;SDS011;74250;51.528;6.748;2023-11-21T15:11:14;11.25;;;5.95;;
84138;SDS011;74250;51.528;6.748;2023-11-21T15:13:41;11.57;;;6.25;;
84138;SDS011;74250;51.528;6.748;2023-11-21T15:16:07;11.35;;;5.68;;
84138;SDS011;74250;51.528;6.748;2023-11-21T15:18:34;10.57;;;6.07;;
84138;SDS011;74250;51.528;6.748;2023-11-21T15:21:00;11.05;;;6.03;;
84138;SDS011;74250;51.528;6.748;2023-11-21T15:23:26;9.38;;;5.18;;
84138;SDS011;74250;51.528;6.748;2023-11-21T15:25:53;8.77;;;4.60;;